sensor_id;sensor_type;location;lat;lon;timestamp;temperature;humidity
50556;DHT22;36508;52.512;13.450;2022-11-21T00:00:44;0.40;99.90
50556;DHT22;36508;52.512;13.450;2022-11-21T00:03:10;0.60;99.90
50556;DHT22;36508;52.512;13.450;2022-11-21T00:05:41;0.60;99.90
50556;DHT22;36508;52.512;13.450;2022-11-21T00:08:09;0.60;99.90
50556;DHT22;36508;52.512;13.450;2022-11-21T00:10:36;0.60;99.90
50556;DHT22;36508;52.512;13.450;2022-11-21T00:13:02;0.60;99.90
50556;DHT22;36508;52.512;13.450;2022-11-21T00:15:28;0.60;99.90
50556;DHT22;36508;52.512;13.450;2022-11-21T00:17:54;0.60;99.90
50556;DHT22;36508;52.512;13.450;2022-11-21T00:20:21;0.60;99.90
50556;DHT22;36508;52.512;13.450;2022-11-21T00:22:47;0.50;99.90
50556;DHT22;36508;52.512;13.450;2022-11-21T00:25:13;0.60;99.90
50556;DHT22;36508;52.512;13.450;2022-11-21T00:27:39;0.60;99.90
50556;DHT22;36508;52.512;13.450;2022-11-21T00:30:08;0.70;99.90
50556;DHT22;36508;52.512;13.450;2022-11-21T00:32:34;0.70;99.90
50556;DHT22;36508;52.512;13.450;2022-11-21T00:34:59;0.60;99.90
50556;DHT22;36508;52.512;13.450;2022-11-21T00:37:25;0.60;99.90
50556;DHT22;36508;52.512;13.450;2022-11-21T00:39:51;0.60;99.90
50556;DHT22;36508;52.512;13.450;2022-11-21T00:42:16;0.70;99.90
50556;DHT22;36508;52.512;13.450;2022-11-21T00:44:42;0.60;99.90
50556;DHT22;36508;52.512;13.450;2022-11-21T00:47:07;0.70;99.90
50556;DHT22;36508;52.512;13.450;2022-11-21T00:49:33;0.70;99.90
50556;DHT22;36508;52.512;13.450;2022-11-21T00:51:59;0.70;99.90
50556;DHT22;36508;52.512;13.450;2022-11-21T00:54:24;0.80;99.90
50556;DHT22;36508;52.512;13.450;2022-11-21T00:56:50;0.80;99.90
50556;DHT22;36508;52.512;13.450;2022-11-21T00:59:16;0.90;99.90
50556;DHT22;36508;52.512;13.450;2022-11-21T01:01:41;0.70;99.90
50556;DHT22;36508;52.512;13.450;2022-11-21T01:04:07;0.80;99.90
50556;DHT22;36508;52.512;13.450;2022-11-21T01:06:32;0.80;99.90
50556;DHT22;36508;52.512;13.450;2022-11-21T01:08:58;0.80;99.90
50556;DHT22;36508;52.512;13.450;2022-11-21T01:11:24;0.80;99.90
50556;DHT22;36508;52.512;13.450;2022-11-21T01:13:52;0.80;99.90
50556;DHT22;36508;52.512;13.450;2022-11-21T01:16:20;0.80;99.90
50556;DHT22;36508;52.512;13.450;2022-11-21T01:18:46;0.80;99.90
50556;DHT22;36508;52.512;13.450;2022-11-21T01:23:48;0.90;99.90
50556;DHT22;36508;52.512;13.450;2022-11-21T01:26:17;0.90;99.90
50556;DHT22;36508;52.512;13.450;2022-11-21T01:28:43;0.80;99.90
50556;DHT22;36508;52.512;13.450;2022-11-21T01:31:12;0.80;99.90
50556;DHT22;36508;52.512;13.450;2022-11-21T01:33:38;0.80;99.90
50556;DHT22;36508;52.512;13.450;2022-11-21T01:36:08;0.80;99.90
50556;DHT22;36508;52.512;13.450;2022-11-21T01:38:35;0.90;99.90
50556;DHT22;36508;52.512;13.450;2022-11-21T01:41:01;0.90;99.90
50556;DHT22;36508;52.512;13.450;2022-11-21T01:43:26;0.90;99.90
50556;DHT22;36508;52.512;13.450;2022-11-21T01:51:19;0.80;99.90
50556;DHT22;36508;52.512;13.450;2022-11-21T01:56:25;0.80;99.90
50556;DHT22;36508;52.512;13.450;2022-11-21T01:58:53;0.70;99.90
50556;DHT22;36508;52.512;13.450;2022-11-21T02:01:23;0.70;99.90
50556;DHT22;36508;52.512;13.450;2022-11-21T02:03:50;0.70;99.90
50556;DHT22;36508;52.512;13.450;2022-11-21T02:06:17;0.70;99.90
50556;DHT22;36508;52.512;13.450;2022-11-21T02:08:43;0.60;99.90
50556;DHT22;36508;52.512;13.450;2022-11-21T02:13:47;0.80;99.90
50556;DHT22;36508;52.512;13.450;2022-11-21T02:16:13;0.70;99.90
50556;DHT22;36508;52.512;13.450;2022-11-21T02:18:38;0.60;99.90
50556;DHT22;36508;52.512;13.450;2022-11-21T02:21:15;0.70;99.90
50556;DHT22;36508;52.512;13.450;2022-11-21T02:23:49;0.70;99.90
50556;DHT22;36508;52.512;13.450;2022-11-21T02:26:16;0.80;99.90
50556;DHT22;36508;52.512;13.450;2022-11-21T02:28:42;0.80;99.90
50556;DHT22;36508;52.512;13.450;2022-11-21T02:31:08;0.70;99.90
50556;DHT22;36508;52.512;13.450;2022-11-21T02:33:34;0.70;99.90
50556;DHT22;36508;52.512;13.450;2022-11-21T02:36:00;0.50;99.90
50556;DHT22;36508;52.512;13.450;2022-11-21T02:38:35;0.50;99.90
50556;DHT22;36508;52.512;13.450;2022-11-21T02:41:15;0.60;99.90
50556;DHT22;36508;52.512;13.450;2022-11-21T02:43:54;0.70;99.90
50556;DHT22;36508;52.512;13.450;2022-11-21T02:46:21;0.70;99.90
50556;DHT22;36508;52.512;13.450;2022-11-21T02:48:47;0.70;99.90
50556;DHT22;36508;52.512;13.450;2022-11-21T02:51:12;0.70;99.90
50556;DHT22;36508;52.512;13.450;2022-11-21T02:53:38;0.70;99.90
50556;DHT22;36508;52.512;13.450;2022-11-21T02:56:04;0.70;99.90
50556;DHT22;36508;52.512;13.450;2022-11-21T02:58:29;0.70;99.90
50556;DHT22;36508;52.512;13.450;2022-11-21T03:00:55;0.70;99.90
50556;DHT22;36508;52.512;13.450;2022-11-21T03:03:21;0.70;99.90
50556;DHT22;36508;52.512;13.450;2022-11-21T03:05:47;0.80;99.90
50556;DHT22;36508;52.512;13.450;2022-11-21T03:08:12;0.80;99.90
50556;DHT22;36508;52.512;13.450;2022-11-21T03:10:38;0.90;99.90
50556;DHT22;36508;52.512;13.450;2022-11-21T03:13:04;0.80;99.90
50556;DHT22;36508;52.512;13.450;2022-11-21T03:15:32;0.70;99.90
50556;DHT22;36508;52.512;13.450;2022-11-21T03:17:58;0.80;99.90
50556;DHT22;36508;52.512;13.450;2022-11-21T03:20:27;0.80;99.90
50556;DHT22;36508;52.512;13.450;2022-11-21T03:22:53;0.90;99.90
50556;DHT22;36508;52.512;13.450;2022-11-21T03:25:19;0.90;99.90
50556;DHT22;36508;52.512;13.450;2022-11-21T03:27:44;0.90;99.90
50556;DHT22;36508;52.512;13.450;2022-11-21T03:30:10;0.90;99.90
50556;DHT22;36508;52.512;13.450;2022-11-21T03:32:36;1.00;99.90
50556;DHT22;36508;52.512;13.450;2022-11-21T03:35:02;1.00;99.90
50556;DHT22;36508;52.512;13.450;2022-11-21T03:37:27;1.00;99.90
50556;DHT22;36508;52.512;13.450;2022-11-21T03:39:53;1.00;99.90
50556;DHT22;36508;52.512;13.450;2022-11-21T03:42:18;1.10;99.90
50556;DHT22;36508;52.512;13.450;2022-11-21T03:44:44;1.00;99.90
50556;DHT22;36508;52.512;13.450;2022-11-21T03:47:09;1.00;99.90
50556;DHT22;36508;52.512;13.450;2022-11-21T03:49:35;1.00;99.90
50556;DHT22;36508;52.512;13.450;2022-11-21T03:52:01;0.90;99.90
50556;DHT22;36508;52.512;13.450;2022-11-21T03:54:26;0.90;99.90
50556;DHT22;36508;52.512;13.450;2022-11-21T03:56:52;1.00;99.90
50556;DHT22;36508;52.512;13.450;2022-11-21T03:59:17;1.00;99.90
50556;DHT22;36508;52.512;13.450;2022-11-21T04:01:43;1.00;99.90
50556;DHT22;36508;52.512;13.450;2022-11-21T04:04:08;1.00;99.90
50556;DHT22;36508;52.512;13.450;2022-11-21T04:06:34;0.70;99.90
50556;DHT22;36508;52.512;13.450;2022-11-21T04:08:59;0.70;99.90
50556;DHT22;36508;52.512;13.450;2022-11-21T04:11:25;0.80;99.90
50556;DHT22;36508;52.512;13.450;2022-11-21T04:13:51;0.90;99.90
50556;DHT22;36508;52.512;13.450;2022-11-21T04:16:17;0.90;99.90
50556;DHT22;36508;52.512;13.450;2022-11-21T04:18:42;0.80;99.90
50556;DHT22;36508;52.512;13.450;2022-11-21T04:21:08;0.90;99.90
50556;DHT22;36508;52.512;13.450;2022-11-21T04:23:34;0.90;99.90
50556;DHT22;36508;52.512;13.450;2022-11-21T04:25:59;0.90;99.90
50556;DHT22;36508;52.512;13.450;2022-11-21T04:28:25;0.90;99.90
50556;DHT22;36508;52.512;13.450;2022-11-21T04:30:51;0.90;99.90
50556;DHT22;36508;52.512;13.450;2022-11-21T04:33:17;0.90;99.90
50556;DHT22;36508;52.512;13.450;2022-11-21T04:35:43;0.70;99.90
50556;DHT22;36508;52.512;13.450;2022-11-21T04:38:09;0.70;99.90
50556;DHT22;36508;52.512;13.450;2022-11-21T04:40:35;0.70;99.90
50556;DHT22;36508;52.512;13.450;2022-11-21T04:43:01;0.70;99.90
50556;DHT22;36508;52.512;13.450;2022-11-21T04:45:27;0.70;99.90
50556;DHT22;36508;52.512;13.450;2022-11-21T04:47:56;0.70;99.90
50556;DHT22;36508;52.512;13.450;2022-11-21T04:50:21;0.60;99.90
50556;DHT22;36508;52.512;13.450;2022-11-21T04:52:51;0.50;99.90
50556;DHT22;36508;52.512;13.450;2022-11-21T04:55:19;0.40;99.90
50556;DHT22;36508;52.512;13.450;2022-11-21T04:57:45;0.40;99.90
50556;DHT22;36508;52.512;13.450;2022-11-21T05:00:12;0.70;99.90
50556;DHT22;36508;52.512;13.450;2022-11-21T05:02:38;0.60;99.90
50556;DHT22;36508;52.512;13.450;2022-11-21T05:05:04;0.70;99.90
50556;DHT22;36508;52.512;13.450;2022-11-21T05:07:29;0.60;99.90
50556;DHT22;36508;52.512;13.450;2022-11-21T05:09:55;0.60;99.90
50556;DHT22;36508;52.512;13.450;2022-11-21T05:12:20;0.50;99.90
50556;DHT22;36508;52.512;13.450;2022-11-21T05:15:05;0.60;99.90
50556;DHT22;36508;52.512;13.450;2022-11-21T05:17:31;0.70;99.90
50556;DHT22;36508;52.512;13.450;2022-11-21T05:19:56;0.70;99.90
50556;DHT22;36508;52.512;13.450;2022-11-21T05:22:22;0.70;99.90
50556;DHT22;36508;52.512;13.450;2022-11-21T05:24:47;0.70;99.90
50556;DHT22;36508;52.512;13.450;2022-11-21T05:27:13;0.70;99.90
50556;DHT22;36508;52.512;13.450;2022-11-21T05:29:38;0.70;99.90
50556;DHT22;36508;52.512;13.450;2022-11-21T05:32:04;0.60;99.90
50556;DHT22;36508;52.512;13.450;2022-11-21T05:34:30;0.60;99.90
50556;DHT22;36508;52.512;13.450;2022-11-21T05:36:55;0.70;99.90
50556;DHT22;36508;52.512;13.450;2022-11-21T05:39:23;0.80;99.90
50556;DHT22;36508;52.512;13.450;2022-11-21T05:41:48;0.80;99.90
50556;DHT22;36508;52.512;13.450;2022-11-21T05:44:14;0.80;99.90
50556;DHT22;36508;52.512;13.450;2022-11-21T05:46:40;0.70;99.90
50556;DHT22;36508;52.512;13.450;2022-11-21T05:49:05;0.80;99.90
50556;DHT22;36508;52.512;13.450;2022-11-21T05:51:31;0.90;99.90
50556;DHT22;36508;52.512;13.450;2022-11-21T05:53:58;0.80;99.90
50556;DHT22;36508;52.512;13.450;2022-11-21T05:56:24;0.80;99.90
50556;DHT22;36508;52.512;13.450;2022-11-21T05:58:50;0.80;99.90
50556;DHT22;36508;52.512;13.450;2022-11-21T06:01:18;0.70;99.90
50556;DHT22;36508;52.512;13.450;2022-11-21T06:04:04;0.70;99.90
50556;DHT22;36508;52.512;13.450;2022-11-21T06:06:29;0.90;99.90
50556;DHT22;36508;52.512;13.450;2022-11-21T06:08:55;1.00;99.90
50556;DHT22;36508;52.512;13.450;2022-11-21T06:11:20;1.00;99.90
50556;DHT22;36508;52.512;13.450;2022-11-21T06:13:46;0.80;99.90
50556;DHT22;36508;52.512;13.450;2022-11-21T06:16:14;0.80;99.90
50556;DHT22;36508;52.512;13.450;2022-11-21T06:18:45;0.80;99.90
50556;DHT22;36508;52.512;13.450;2022-11-21T06:23:39;0.90;99.90
50556;DHT22;36508;52.512;13.450;2022-11-21T06:26:11;0.80;99.90
50556;DHT22;36508;52.512;13.450;2022-11-21T06:28:38;1.00;99.90
50556;DHT22;36508;52.512;13.450;2022-11-21T06:31:07;0.90;99.90
50556;DHT22;36508;52.512;13.450;2022-11-21T06:33:34;0.90;99.90
50556;DHT22;36508;52.512;13.450;2022-11-21T06:36:08;1.00;99.90
50556;DHT22;36508;52.512;13.450;2022-11-21T06:38:34;0.90;99.90
50556;DHT22;36508;52.512;13.450;2022-11-21T06:41:09;0.90;99.90
50556;DHT22;36508;52.512;13.450;2022-11-21T06:43:35;0.90;99.90
50556;DHT22;36508;52.512;13.450;2022-11-21T06:46:01;1.10;99.90
50556;DHT22;36508;52.512;13.450;2022-11-21T06:48:29;0.90;99.90
50556;DHT22;36508;52.512;13.450;2022-11-21T06:50:54;0.90;99.90
50556;DHT22;36508;52.512;13.450;2022-11-21T06:53:20;0.80;99.90
50556;DHT22;36508;52.512;13.450;2022-11-21T06:55:46;1.00;99.90
50556;DHT22;36508;52.512;13.450;2022-11-21T06:58:11;1.00;99.90
50556;DHT22;36508;52.512;13.450;2022-11-21T07:00:37;0.90;99.90
50556;DHT22;36508;52.512;13.450;2022-11-21T07:03:03;0.80;99.90
50556;DHT22;36508;52.512;13.450;2022-11-21T07:05:29;0.90;99.90
50556;DHT22;36508;52.512;13.450;2022-11-21T07:07:59;0.80;99.90
50556;DHT22;36508;52.512;13.450;2022-11-21T07:10:24;0.80;99.90
50556;DHT22;36508;52.512;13.450;2022-11-21T07:12:50;0.80;99.90
50556;DHT22;36508;52.512;13.450;2022-11-21T07:15:34;0.80;99.90
50556;DHT22;36508;52.512;13.450;2022-11-21T07:18:00;0.80;99.90
50556;DHT22;36508;52.512;13.450;2022-11-21T07:20:26;0.90;99.90
50556;DHT22;36508;52.512;13.450;2022-11-21T07:22:54;0.80;99.90
50556;DHT22;36508;52.512;13.450;2022-11-21T07:25:21;0.80;99.90
50556;DHT22;36508;52.512;13.450;2022-11-21T07:27:47;0.70;99.90
50556;DHT22;36508;52.512;13.450;2022-11-21T07:30:13;0.60;99.90
50556;DHT22;36508;52.512;13.450;2022-11-21T07:32:38;0.60;99.90
50556;DHT22;36508;52.512;13.450;2022-11-21T07:35:05;0.50;99.90
50556;DHT22;36508;52.512;13.450;2022-11-21T07:37:30;0.50;99.90
50556;DHT22;36508;52.512;13.450;2022-11-21T07:39:56;0.50;99.90
50556;DHT22;36508;52.512;13.450;2022-11-21T07:42:22;0.60;99.90
50556;DHT22;36508;52.512;13.450;2022-11-21T07:44:47;0.50;99.90
50556;DHT22;36508;52.512;13.450;2022-11-21T07:47:13;0.60;99.90
50556;DHT22;36508;52.512;13.450;2022-11-21T07:49:39;0.50;99.90
50556;DHT22;36508;52.512;13.450;2022-11-21T07:52:04;0.50;99.90
50556;DHT22;36508;52.512;13.450;2022-11-21T07:54:30;0.50;99.90
50556;DHT22;36508;52.512;13.450;2022-11-21T07:56:55;0.50;99.90
50556;DHT22;36508;52.512;13.450;2022-11-21T07:59:21;0.50;99.90
50556;DHT22;36508;52.512;13.450;2022-11-21T08:01:47;0.50;99.90
50556;DHT22;36508;52.512;13.450;2022-11-21T08:04:12;0.60;99.90
50556;DHT22;36508;52.512;13.450;2022-11-21T08:06:38;0.60;99.90
50556;DHT22;36508;52.512;13.450;2022-11-21T08:09:03;0.60;99.90
50556;DHT22;36508;52.512;13.450;2022-11-21T08:11:29;0.60;99.90
50556;DHT22;36508;52.512;13.450;2022-11-21T08:13:57;0.70;99.90
50556;DHT22;36508;52.512;13.450;2022-11-21T08:16:23;0.80;99.90
50556;DHT22;36508;52.512;13.450;2022-11-21T08:18:52;0.90;99.90
50556;DHT22;36508;52.512;13.450;2022-11-21T08:21:18;1.00;99.90
50556;DHT22;36508;52.512;13.450;2022-11-21T08:23:44;1.00;99.90
50556;DHT22;36508;52.512;13.450;2022-11-21T08:26:09;1.10;99.90
50556;DHT22;36508;52.512;13.450;2022-11-21T08:28:35;1.20;99.90
50556;DHT22;36508;52.512;13.450;2022-11-21T08:31:04;1.10;99.90
50556;DHT22;36508;52.512;13.450;2022-11-21T08:33:33;1.10;99.90
50556;DHT22;36508;52.512;13.450;2022-11-21T08:36:03;1.10;99.90
50556;DHT22;36508;52.512;13.450;2022-11-21T08:38:29;1.30;99.90
50556;DHT22;36508;52.512;13.450;2022-11-21T08:40:54;1.20;99.90
50556;DHT22;36508;52.512;13.450;2022-11-21T08:43:39;1.20;99.90
50556;DHT22;36508;52.512;13.450;2022-11-21T08:46:04;1.20;99.90
50556;DHT22;36508;52.512;13.450;2022-11-21T08:48:30;1.20;99.90
50556;DHT22;36508;52.512;13.450;2022-11-21T08:50:56;0.90;99.90
50556;DHT22;36508;52.512;13.450;2022-11-21T08:53:22;0.90;99.90
50556;DHT22;36508;52.512;13.450;2022-11-21T08:55:48;0.80;99.90
50556;DHT22;36508;52.512;13.450;2022-11-21T08:58:14;0.70;99.90
50556;DHT22;36508;52.512;13.450;2022-11-21T09:00:39;0.50;99.90
50556;DHT22;36508;52.512;13.450;2022-11-21T09:03:05;0.40;99.90
50556;DHT22;36508;52.512;13.450;2022-11-21T09:05:32;0.40;99.90
50556;DHT22;36508;52.512;13.450;2022-11-21T09:07:58;0.40;99.90
50556;DHT22;36508;52.512;13.450;2022-11-21T09:10:26;0.10;99.90
50556;DHT22;36508;52.512;13.450;2022-11-21T09:12:57;0.10;99.90
50556;DHT22;36508;52.512;13.450;2022-11-21T09:15:24;0.20;99.90
50556;DHT22;36508;52.512;13.450;2022-11-21T09:18:10;0.30;99.90
50556;DHT22;36508;52.512;13.450;2022-11-21T09:20:41;0.60;99.90
50556;DHT22;36508;52.512;13.450;2022-11-21T09:23:09;0.60;99.90
50556;DHT22;36508;52.512;13.450;2022-11-21T09:25:35;0.50;99.90
50556;DHT22;36508;52.512;13.450;2022-11-21T09:28:01;0.30;99.90
50556;DHT22;36508;52.512;13.450;2022-11-21T09:30:27;0.40;99.90
50556;DHT22;36508;52.512;13.450;2022-11-21T09:32:53;0.20;99.90
50556;DHT22;36508;52.512;13.450;2022-11-21T09:35:19;0.00;99.90
50556;DHT22;36508;52.512;13.450;2022-11-21T09:37:44;0.00;99.90
50556;DHT22;36508;52.512;13.450;2022-11-21T09:40:15;0.00;99.90
50556;DHT22;36508;52.512;13.450;2022-11-21T09:45:36;0.10;99.90
50556;DHT22;36508;52.512;13.450;2022-11-21T09:48:13;0.40;99.90
50556;DHT22;36508;52.512;13.450;2022-11-21T09:50:55;0.60;99.90
50556;DHT22;36508;52.512;13.450;2022-11-21T09:53:34;0.60;99.90
50556;DHT22;36508;52.512;13.450;2022-11-21T09:56:06;0.60;99.90
50556;DHT22;36508;52.512;13.450;2022-11-21T09:58:41;0.50;99.90
50556;DHT22;36508;52.512;13.450;2022-11-21T10:01:15;0.40;99.90
50556;DHT22;36508;52.512;13.450;2022-11-21T10:03:43;0.40;99.90
50556;DHT22;36508;52.512;13.450;2022-11-21T10:26:15;0.00;99.90
50556;DHT22;36508;52.512;13.450;2022-11-21T10:31:35;-0.10;99.90
50556;DHT22;36508;52.512;13.450;2022-11-21T10:34:07;-0.20;99.90
50556;DHT22;36508;52.512;13.450;2022-11-21T10:36:40;-0.10;99.90
50556;DHT22;36508;52.512;13.450;2022-11-21T10:39:17;0.00;99.90
50556;DHT22;36508;52.512;13.450;2022-11-21T10:42:04;0.00;99.90
50556;DHT22;36508;52.512;13.450;2022-11-21T10:44:36;-0.10;99.90
50556;DHT22;36508;52.512;13.450;2022-11-21T10:47:23;-0.10;99.90
50556;DHT22;36508;52.512;13.450;2022-11-21T10:53:24;0.00;99.90
50556;DHT22;36508;52.512;13.450;2022-11-21T10:56:20;0.10;99.90
50556;DHT22;36508;52.512;13.450;2022-11-21T10:58:52;0.10;99.90
50556;DHT22;36508;52.512;13.450;2022-11-21T11:04:17;0.10;99.90
50556;DHT22;36508;52.512;13.450;2022-11-21T11:06:45;0.30;99.90
50556;DHT22;36508;52.512;13.450;2022-11-21T11:09:26;0.50;99.90
50556;DHT22;36508;52.512;13.450;2022-11-21T11:14:37;0.20;99.90
50556;DHT22;36508;52.512;13.450;2022-11-21T11:17:03;0.10;99.90
50556;DHT22;36508;52.512;13.450;2022-11-21T11:19:29;0.00;99.90
50556;DHT22;36508;52.512;13.450;2022-11-21T11:21:54;0.00;99.90
50556;DHT22;36508;52.512;13.450;2022-11-21T11:24:23;0.00;99.90
50556;DHT22;36508;52.512;13.450;2022-11-21T11:26:58;0.00;99.90
50556;DHT22;36508;52.512;13.450;2022-11-21T11:32:02;0.30;99.90
50556;DHT22;36508;52.512;13.450;2022-11-21T11:37:41;0.70;99.90
50556;DHT22;36508;52.512;13.450;2022-11-21T11:43:16;0.80;99.90
50556;DHT22;36508;52.512;13.450;2022-11-21T11:49:03;0.90;99.90
50556;DHT22;36508;52.512;13.450;2022-11-21T11:51:38;0.90;99.90
50556;DHT22;36508;52.512;13.450;2022-11-21T11:54:18;0.90;99.90
50556;DHT22;36508;52.512;13.450;2022-11-21T11:56:47;0.80;99.90
50556;DHT22;36508;52.512;13.450;2022-11-21T12:02:06;0.50;99.90
50556;DHT22;36508;52.512;13.450;2022-11-21T12:04:46;0.60;99.90
50556;DHT22;36508;52.512;13.450;2022-11-21T12:07:20;0.70;99.90
50556;DHT22;36508;52.512;13.450;2022-11-21T12:12:36;0.40;99.90
50556;DHT22;36508;52.512;13.450;2022-11-21T12:15:40;0.30;99.90
50556;DHT22;36508;52.512;13.450;2022-11-21T12:20:56;0.20;99.90
50556;DHT22;36508;52.512;13.450;2022-11-21T12:23:41;0.30;99.90
50556;DHT22;36508;52.512;13.450;2022-11-21T12:26:16;0.40;99.90
50556;DHT22;36508;52.512;13.450;2022-11-21T12:31:44;0.30;99.90
50556;DHT22;36508;52.512;13.450;2022-11-21T12:37:26;0.20;99.90
50556;DHT22;36508;52.512;13.450;2022-11-21T12:39:58;0.20;99.90
50556;DHT22;36508;52.512;13.450;2022-11-21T12:51:08;0.40;99.90
50556;DHT22;36508;52.512;13.450;2022-11-21T12:56:58;0.40;99.90
50556;DHT22;36508;52.512;13.450;2022-11-21T12:59:26;0.40;99.90
50556;DHT22;36508;52.512;13.450;2022-11-21T13:02:32;0.30;99.90
50556;DHT22;36508;52.512;13.450;2022-11-21T13:04:59;0.40;99.90
50556;DHT22;36508;52.512;13.450;2022-11-21T13:07:27;0.70;99.90
50556;DHT22;36508;52.512;13.450;2022-11-21T13:09:55;0.80;99.90
50556;DHT22;36508;52.512;13.450;2022-11-21T13:15:03;0.90;99.90
50556;DHT22;36508;52.512;13.450;2022-11-21T13:22:57;0.50;99.90
50556;DHT22;36508;52.512;13.450;2022-11-21T13:30:59;0.30;99.90
50556;DHT22;36508;52.512;13.450;2022-11-21T13:33:51;0.50;99.90
50556;DHT22;36508;52.512;13.450;2022-11-21T13:36:37;0.60;99.90
50556;DHT22;36508;52.512;13.450;2022-11-21T14:08:19;0.40;99.90
50556;DHT22;36508;52.512;13.450;2022-11-21T14:10:47;0.30;99.90
50556;DHT22;36508;52.512;13.450;2022-11-21T14:15:49;0.30;99.90
50556;DHT22;36508;52.512;13.450;2022-11-21T14:18:21;0.30;99.90
50556;DHT22;36508;52.512;13.450;2022-11-21T14:20:56;0.30;99.90
50556;DHT22;36508;52.512;13.450;2022-11-21T14:23:28;0.30;99.90
50556;DHT22;36508;52.512;13.450;2022-11-21T14:25:58;0.40;99.90
50556;DHT22;36508;52.512;13.450;2022-11-21T14:28:26;0.50;99.90
50556;DHT22;36508;52.512;13.450;2022-11-21T14:30:59;0.40;99.90
50556;DHT22;36508;52.512;13.450;2022-11-21T14:36:17;0.40;99.90
50556;DHT22;36508;52.512;13.450;2022-11-21T14:38:51;0.60;99.90
50556;DHT22;36508;52.512;13.450;2022-11-21T14:46:24;0.90;99.90
50556;DHT22;36508;52.512;13.450;2022-11-21T14:48:50;0.90;99.90
50556;DHT22;36508;52.512;13.450;2022-11-21T14:51:23;0.90;99.90
50556;DHT22;36508;52.512;13.450;2022-11-21T14:53:51;0.90;99.90
50556;DHT22;36508;52.512;13.450;2022-11-21T14:56:26;1.00;99.90
50556;DHT22;36508;52.512;13.450;2022-11-21T14:58:53;0.90;99.90
50556;DHT22;36508;52.512;13.450;2022-11-21T15:01:23;0.90;99.90
50556;DHT22;36508;52.512;13.450;2022-11-21T15:04:00;0.80;99.90
50556;DHT22;36508;52.512;13.450;2022-11-21T15:06:27;0.80;99.90
50556;DHT22;36508;52.512;13.450;2022-11-21T15:08:55;0.60;99.90
50556;DHT22;36508;52.512;13.450;2022-11-21T15:14:06;0.40;99.90
50556;DHT22;36508;52.512;13.450;2022-11-21T15:16:36;0.40;99.90
50556;DHT22;36508;52.512;13.450;2022-11-21T15:19:09;0.50;99.90
50556;DHT22;36508;52.512;13.450;2022-11-21T15:21:35;0.50;99.90
50556;DHT22;36508;52.512;13.450;2022-11-21T15:24:38;0.60;99.90
50556;DHT22;36508;52.512;13.450;2022-11-21T15:30:21;0.80;99.90
50556;DHT22;36508;52.512;13.450;2022-11-21T15:33:05;0.80;99.90
50556;DHT22;36508;52.512;13.450;2022-11-21T15:38:34;0.90;99.90
50556;DHT22;36508;52.512;13.450;2022-11-21T15:43:43;0.90;99.90
50556;DHT22;36508;52.512;13.450;2022-11-21T15:46:24;0.90;99.90
50556;DHT22;36508;52.512;13.450;2022-11-21T15:49:00;0.80;99.90
50556;DHT22;36508;52.512;13.450;2022-11-21T15:51:38;0.70;99.90
50556;DHT22;36508;52.512;13.450;2022-11-21T15:54:05;0.70;99.90
50556;DHT22;36508;52.512;13.450;2022-11-21T15:56:32;0.80;99.90
50556;DHT22;36508;52.512;13.450;2022-11-21T15:58:58;0.80;99.90
50556;DHT22;36508;52.512;13.450;2022-11-21T16:01:26;0.70;99.90
50556;DHT22;36508;52.512;13.450;2022-11-21T16:04:05;0.80;99.90
50556;DHT22;36508;52.512;13.450;2022-11-21T16:06:32;0.80;99.90
50556;DHT22;36508;52.512;13.450;2022-11-21T16:08:59;0.90;99.90
50556;DHT22;36508;52.512;13.450;2022-11-21T16:11:29;0.90;99.90
50556;DHT22;36508;52.512;13.450;2022-11-21T16:13:57;0.80;99.90
50556;DHT22;36508;52.512;13.450;2022-11-21T16:16:26;0.80;99.90
50556;DHT22;36508;52.512;13.450;2022-11-21T16:18:52;0.90;99.90
50556;DHT22;36508;52.512;13.450;2022-11-21T16:21:17;1.00;99.90
50556;DHT22;36508;52.512;13.450;2022-11-21T16:23:43;1.00;99.90
50556;DHT22;36508;52.512;13.450;2022-11-21T16:26:13;1.00;99.90
50556;DHT22;36508;52.512;13.450;2022-11-21T16:28:39;1.00;99.90
50556;DHT22;36508;52.512;13.450;2022-11-21T16:31:05;0.90;99.90
50556;DHT22;36508;52.512;13.450;2022-11-21T16:33:32;0.90;99.90
50556;DHT22;36508;52.512;13.450;2022-11-21T16:35:57;1.00;99.90
50556;DHT22;36508;52.512;13.450;2022-11-21T16:38:27;1.00;99.90
50556;DHT22;36508;52.512;13.450;2022-11-21T16:43:22;0.90;99.90
50556;DHT22;36508;52.512;13.450;2022-11-21T16:45:49;0.90;99.90
50556;DHT22;36508;52.512;13.450;2022-11-21T16:48:15;1.00;99.90
50556;DHT22;36508;52.512;13.450;2022-11-21T16:50:41;1.00;99.90
50556;DHT22;36508;52.512;13.450;2022-11-21T16:53:06;0.90;99.90
50556;DHT22;36508;52.512;13.450;2022-11-21T16:55:32;0.80;99.90
50556;DHT22;36508;52.512;13.450;2022-11-21T16:57:57;0.90;99.90
50556;DHT22;36508;52.512;13.450;2022-11-21T17:00:24;0.80;99.90
50556;DHT22;36508;52.512;13.450;2022-11-21T17:02:50;0.90;99.90
50556;DHT22;36508;52.512;13.450;2022-11-21T17:05:16;0.80;99.90
50556;DHT22;36508;52.512;13.450;2022-11-21T17:07:43;0.80;99.90
50556;DHT22;36508;52.512;13.450;2022-11-21T17:10:08;0.80;99.90
50556;DHT22;36508;52.512;13.450;2022-11-21T17:12:35;0.80;99.90
50556;DHT22;36508;52.512;13.450;2022-11-21T17:15:04;0.80;99.90
50556;DHT22;36508;52.512;13.450;2022-11-21T17:17:29;0.60;99.90
50556;DHT22;36508;52.512;13.450;2022-11-21T17:19:56;0.60;99.90
50556;DHT22;36508;52.512;13.450;2022-11-21T17:22:21;0.60;99.90
50556;DHT22;36508;52.512;13.450;2022-11-21T17:24:50;0.60;99.90
50556;DHT22;36508;52.512;13.450;2022-11-21T17:27:20;0.60;99.90
50556;DHT22;36508;52.512;13.450;2022-11-21T17:29:45;0.50;99.90
50556;DHT22;36508;52.512;13.450;2022-11-21T17:32:11;0.40;99.90
50556;DHT22;36508;52.512;13.450;2022-11-21T17:34:37;0.30;99.90
50556;DHT22;36508;52.512;13.450;2022-11-21T17:37:02;0.30;99.90
50556;DHT22;36508;52.512;13.450;2022-11-21T17:39:28;0.40;99.90
50556;DHT22;36508;52.512;13.450;2022-11-21T17:41:54;0.30;99.90
50556;DHT22;36508;52.512;13.450;2022-11-21T17:44:19;0.30;99.90
50556;DHT22;36508;52.512;13.450;2022-11-21T17:46:45;0.20;99.90
50556;DHT22;36508;52.512;13.450;2022-11-21T17:49:11;0.30;99.90
50556;DHT22;36508;52.512;13.450;2022-11-21T17:51:37;0.20;99.90
50556;DHT22;36508;52.512;13.450;2022-11-21T17:54:04;0.20;99.90
50556;DHT22;36508;52.512;13.450;2022-11-21T17:56:48;0.20;99.90
50556;DHT22;36508;52.512;13.450;2022-11-21T17:59:15;0.20;99.90
50556;DHT22;36508;52.512;13.450;2022-11-21T18:01:40;0.20;99.90
50556;DHT22;36508;52.512;13.450;2022-11-21T18:04:06;0.20;99.90
50556;DHT22;36508;52.512;13.450;2022-11-21T18:06:38;0.20;99.90
50556;DHT22;36508;52.512;13.450;2022-11-21T18:09:05;0.20;99.90
50556;DHT22;36508;52.512;13.450;2022-11-21T18:11:33;0.20;99.90
50556;DHT22;36508;52.512;13.450;2022-11-21T18:13:59;0.20;99.90